CST,Max TemperatureF,Mean TemperatureF,Min TemperatureF,Max Dew PointF,MeanDew PointF,Min DewpointF,Max Humidity, Mean Humidity, Min Humidity, Max Sea Level PressureIn, Mean Sea Level PressureIn, Min Sea Level PressureIn, Max VisibilityMiles, Mean VisibilityMiles, Min VisibilityMiles, Max Wind SpeedMPH, Mean Wind SpeedMPH, Max Gust SpeedMPH,PrecipitationIn, CloudCover, Events, WindDirDegrees
2011-11-1,68,49,30,43,36,28,100,70,40,30.18,30.14,30.06,10,10,7,17,6,23,0.00,0,,153
2011-11-2,68,57,46,43,39,34,66,52,37,30.12,30.05,29.96,10,10,10,16,12,24,0.00,0,,182
2011-11-3,51,48,46,46,44,43,87,85,76,30.07,29.96,29.88,10,10,7,20,14,29,0.01,8,Rain,34
2011-11-4,53,43,33,37,34,32,93,72,47,30.34,30.26,30.15,10,10,10,14,7,16,0.00,0,,44
2011-11-5,57,44,32,34,31,28,93,67,38,30.29,30.23,30.11,10,10,10,14,7,18,0.00,0,,132
2011-11-6,59,48,37,43,40,32,82,68,55,30.10,30.08,30.05,10,10,10,29,13,38,0.00,3,,172
2011-11-7,53,52,51,52,49,43,94,87,67,30.23,30.19,30.14,10,8,2,9,6,,0.04,8,Rain,178
2011-11-8,59,55,51,55,53,50,100,92,88,30.11,30.00,29.93,10,6,1,10,6,16,0.56,8,Rain,118
2011-11-9,59,48,37,55,46,34,94,86,76,30.00,29.75,29.60,10,9,4,36,16,44,0.10,8,Rain,206
2011-11-10,39,36,32,32,31,28,93,85,70,30.06,30.02,30.01,10,10,7,20,12,28,0.01,4,Rain-Snow,259
2011-11-11,44,35,26,32,29,25,93,79,53,30.06,29.99,29.83,10,10,10,16,7,23,0.00,1,,204
2011-11-12,59,46,33,37,35,32,93,66,42,29.87,29.81,29.72,10,10,10,22,11,29,0.00,0,,192
2011-11-13,71,60,50,52,48,43,82,68,46,29.64,29.50,29.40,10,10,10,38,23,48,0.00,3,,190
2011-11-14,51,46,41,46,40,34,93,80,62,29.68,29.63,29.55,10,9,0,17,5,25,0.48,4,Rain-Thunderstorm,41
2011-11-15,60,46,32,48,43,32,100,82,59,29.81,29.78,29.73,10,8,0,18,6,26,0.00,2,Fog,195
2011-11-16,44,38,33,36,23,14,81,55,33,30.17,30.03,29.86,10,10,10,18,8,25,0.00,0,,307
2011-11-17,35,30,26,21,18,12,74,60,38,30.25,30.21,30.16,10,10,10,24,10,32,0.00,0,,264
2011-11-18,50,39,28,23,20,18,69,50,28,30.24,30.12,29.93,10,10,10,32,15,44,0.00,2,,178
2011-11-19,53,48,42,46,34,23,77,60,43,29.98,29.89,29.80,10,10,10,26,19,32,0.00,8,,179
2011-11-20,55,45,35,50,37,34,93,78,66,30.28,30.16,29.91,10,10,10,21,11,25,0.00,5,,335
2011-11-21,46,40,33,37,35,32,93,83,71,30.30,30.25,30.20,10,10,10,16,10,17,0.00,3,,49
2011-11-22,42,40,39,41,38,36,93,88,81,30.18,29.95,29.78,10,6,1,17,9,23,0.76,8,Rain,33
2011-11-23,46,40,33,37,35,32,93,83,62,30.24,30.17,30.03,10,7,2,9,7,,0.00,3,,269
2011-11-24,46,42,39,41,40,37,100,91,81,30.28,30.24,30.15,10,5,1,18,12,23,0.00,8,,202
2011-11-25,57,47,37,46,41,36,100,82,63,30.11,30.02,29.92,10,7,4,23,15,29,0.00,2,,183
2011-11-26,59,54,48,54,47,41,94,77,72,29.96,29.89,29.79,10,10,7,22,14,29,0.01,6,Rain,181
2011-11-27,42,38,35,41,37,32,100,92,87,30.08,29.92,29.80,10,8,2,14,11,22,0.06,8,Rain,308
2011-11-28,39,36,33,34,32,30,93,87,75,30.14,30.08,29.96,10,10,4,17,9,24,0.00,8,Rain-Snow,3
2011-11-29,44,40,37,36,34,27,93,78,65,29.96,29.86,29.80,10,10,7,28,18,43,0.16,8,Rain,4
2011-11-30,39,31,23,27,23,19,93,71,45,30.15,30.07,29.96,10,10,10,12,8,18,0.00,0,,273